Pilot information for Izmail Airport

[ general | frequencies | runways | weather | notam | navaids | links ]

Caution: This page displays community-maintained data: information may be missing, incorrect, or out of date. Please confirm with an official source before making travel plans.

General information for Izmail Airport

Airport codes: UKOI
Type: local airport(light traffic)
Scheduled airline service: no
Serves: Izmail, Odessa, Ukraine
Latitude: 45.391666 | 45 23.499985 N | N45 23 29
Longitude: 28.801666 | 28 48.099976 E | E028 48 05
Field elevation: 125 ft/38 m MSL

Radio communication frequencies for Izmail Airport

No communications frequencies known for Izmail Airport.

Members can add and update frequencies.

Runways at Izmail Airport

No runway information available for Izmail Airport.

Members can add and update runway information.

Aviation weather for Izmail Airport

Current conditions (METAR) for Izmail Airport

Closest report is Tulcea Airport, 20.1 nm (37.2 km) S. Retrieved 2014/07/22 07:00:

LRTC 220700Z 06004KT 010V090 CAVOK 30/17 Q1009

Forecast (TAF) for Izmail Airport

Closest forecast is Tulcea Airport, 20.1 nm (37.2 km) S. Retrieved 2014/07/19 18:48:

TAF LRTC 191800Z 1918/2024 CNL

Notices to Airmen (NOTAM) for Izmail Airport

Please confirm all NOTAMs at the original source! These are for information only, and may be wrong, out of date, or incomplete.

We have no current NOTAMs for Izmail Airport. Please check with an official source to confirm.